Edwardsville, Kansas
Current Conditions -  °F | °C
As of 11:54 AM on Monday 22 Dec 2014 (Local Time) from KMKC Reporting Station
Haze Haze  
Wind Chill: 41°   Ceiling: 600
Heat Index: 45°   Visibility: 6mi
Dew Point: 43°   Wind: 7mph
Humidity: 93%   Direction: 200°SSW
Pressure: 29.51"   Gusts: NA
Location:  39.06°N, 94.82°W
Report Text: KMKC 221754Z 20006KT 6SM BR OVC006 07/06 A2951 RMK AO2 RAB17E27 SLP995 P0000 60000 T00720061 10072 20061 58024
Loading
Personal Weather Stations






























Interactive Weather Map New forecast layout! Learn more

10-Day Weather Forecast

Advertisements
Track Severe Weather on mobile